createdAt,value
2023-05-07T00:00:22.750Z,58.97
2023-05-07T00:01:22.725Z,58.87
2023-05-07T00:02:22.783Z,58.46
2023-05-07T00:03:22.881Z,57.95
2023-05-07T00:04:22.784Z,58.67
2023-05-07T00:05:22.707Z,57.54
2023-05-07T00:06:22.687Z,56.32
2023-05-07T00:07:22.674Z,56.55
2023-05-07T00:08:22.640Z,56.55
2023-05-07T00:09:22.634Z,57.06
2023-05-07T00:10:22.634Z,57.37
2023-05-07T00:11:22.618Z,55.84
2023-05-07T00:12:22.596Z,53.90
2023-05-07T00:13:22.711Z,51.76
2023-05-07T00:14:22.562Z,52.27
2023-05-07T00:15:22.568Z,52.78
2023-05-07T00:16:22.626Z,52.68
2023-05-07T00:17:22.533Z,53.70
2023-05-07T00:18:22.533Z,54.51
2023-05-07T00:19:22.499Z,53.22
2023-05-07T00:20:22.507Z,53.92
2023-05-07T00:21:22.476Z,54.74
2023-05-07T00:22:22.459Z,54.85
2023-05-07T00:23:22.459Z,53.83
2023-05-07T00:24:21.499Z,52.20
2023-05-07T00:25:22.430Z,49.85
2023-05-07T00:26:22.404Z,49.85
2023-05-07T00:27:23.390Z,49.24
2023-05-07T00:28:22.410Z,49.95
2023-05-07T00:29:21.406Z,49.46
2023-05-07T00:30:21.428Z,49.34
2023-05-07T00:31:22.398Z,49.65
2023-05-07T00:32:22.417Z,50.46
2023-05-07T00:33:22.332Z,50.46
2023-05-07T00:34:22.318Z,51.17
2023-05-07T00:35:22.330Z,50.99
2023-05-07T00:36:22.270Z,51.51
2023-05-07T00:37:22.249Z,52.12
2023-05-07T00:38:22.216Z,52.73
2023-05-07T00:39:22.221Z,53.03
2023-05-07T00:40:22.227Z,53.03
2023-05-07T00:41:22.229Z,52.22
2023-05-07T00:42:22.226Z,52.32
2023-05-07T00:43:22.188Z,51.53
2023-05-07T00:44:22.151Z,49.38
2023-05-07T00:45:22.168Z,47.14
2023-05-07T00:46:22.231Z,47.65
2023-05-07T00:47:22.212Z,48.67
2023-05-07T00:48:22.128Z,47.96
2023-05-07T00:49:22.113Z,47.14
2023-05-07T00:50:22.087Z,46.83
2023-05-07T00:51:22.111Z,46.12
2023-05-07T00:52:22.071Z,45.61
2023-05-07T00:53:22.044Z,45.51
2023-05-07T00:54:22.034Z,46.43
2023-05-07T00:55:22.037Z,47.24
2023-05-07T00:56:22.446Z,47.34
2023-05-07T00:57:21.980Z,48.26
2023-05-07T00:58:21.974Z,48.57
2023-05-07T00:59:21.982Z,47.86
2023-05-07T01:00:21.942Z,47.96
2023-05-07T01:01:21.461Z,47.24
2023-05-07T01:02:21.946Z,47.04
2023-05-07T01:03:21.913Z,46.45
2023-05-07T01:04:21.902Z,46.96
2023-05-07T01:05:21.907Z,46.75
2023-05-07T01:06:21.873Z,45.84
2023-05-07T01:07:21.854Z,45.43
2023-05-07T01:08:21.841Z,46.86
2023-05-07T01:09:21.813Z,47.57
2023-05-07T01:10:21.803Z,47.16
2023-05-07T01:11:21.805Z,47.27
2023-05-07T01:12:21.801Z,47.98
2023-05-07T01:13:21.906Z,48.69
2023-05-07T01:14:21.780Z,48.69
2023-05-07T01:15:21.765Z,47.29
2023-05-07T01:16:21.793Z,42.79
2023-05-07T01:17:21.948Z,41.16
2023-05-07T01:18:21.698Z,40.34
2023-05-07T01:19:21.713Z,41.36
2023-05-07T01:20:21.736Z,41.56
2023-05-07T01:21:21.652Z,41.56
2023-05-07T01:22:21.676Z,39.94
2023-05-07T01:23:21.624Z,38.91
2023-05-07T01:24:21.629Z,40.42
2023-05-07T01:25:21.654Z,42.36
2023-05-07T01:26:21.589Z,42.57
2023-05-07T01:27:21.571Z,42.57
2023-05-07T01:28:21.563Z,43.18
2023-05-07T01:29:21.582Z,43.90
2023-05-07T01:30:21.562Z,44.43
2023-05-07T01:31:21.598Z,44.22
2023-05-07T01:32:21.550Z,44.53
2023-05-07T01:33:21.512Z,43.61
2023-05-07T01:34:21.528Z,43.91
2023-05-07T01:35:21.578Z,44.94
2023-05-07T01:36:21.446Z,46.98
2023-05-07T01:37:21.433Z,44.73
2023-05-07T01:38:21.436Z,44.84
2023-05-07T01:39:21.443Z,42.29
2023-05-07T01:40:20.901Z,41.88
2023-05-07T01:41:21.407Z,43.10
2023-05-07T01:42:21.472Z,43.71
2023-05-07T01:43:21.373Z,44.53
2023-05-07T01:44:21.354Z,43.41
2023-05-07T01:45:21.327Z,42.49
2023-05-07T01:46:21.330Z,43.20
2023-05-07T01:47:21.382Z,43.00
2023-05-07T01:48:21.287Z,43.51
2023-05-07T01:49:21.306Z,43.61
2023-05-07T01:50:21.259Z,42.90
2023-05-07T01:51:21.256Z,41.77
2023-05-07T01:52:21.252Z,42.38
2023-05-07T01:53:21.239Z,43.30
2023-05-07T01:54:21.240Z,43.91
2023-05-07T01:55:20.712Z,43.82
2023-05-07T01:56:21.218Z,44.32
2023-05-07T01:57:20.685Z,45.04
2023-05-07T01:58:20.664Z,44.22
2023-05-07T01:59:20.634Z,44.84
2023-05-07T02:00:21.117Z,44.63
2023-05-07T02:01:21.209Z,44.65
2023-05-07T02:02:20.670Z,46.08
2023-05-07T02:03:21.181Z,45.98
2023-05-07T02:04:21.074Z,46.19
2023-05-07T02:05:21.045Z,46.19
2023-05-07T02:06:21.058Z,45.88
2023-05-07T02:07:21.008Z,45.47
2023-05-07T02:08:21.006Z,44.45
2023-05-07T02:09:21.018Z,43.84
2023-05-07T02:10:21.016Z,44.14
2023-05-07T02:11:21.021Z,42.81
2023-05-07T02:12:20.975Z,41.89
2023-05-07T02:13:21.035Z,42.30
2023-05-07T02:14:20.956Z,42.61
2023-05-07T02:15:20.943Z,41.81
2023-05-07T02:16:21.044Z,41.89
2023-05-07T02:17:20.894Z,42.20
2023-05-07T02:18:20.881Z,42.61
2023-05-07T02:19:20.872Z,44.24
2023-05-07T02:20:20.848Z,44.85
2023-05-07T02:21:20.834Z,44.57
2023-05-07T02:22:20.827Z,44.98
2023-05-07T02:23:20.800Z,45.70
2023-05-07T02:24:20.798Z,46.00
2023-05-07T02:25:20.831Z,46.11
2023-05-07T02:26:20.293Z,46.11
2023-05-07T02:27:20.771Z,45.90
2023-05-07T02:28:20.733Z,44.37
2023-05-07T02:29:20.758Z,43.04
2023-05-07T02:30:20.768Z,43.24
2023-05-07T02:31:20.767Z,43.44
2023-05-07T02:32:20.694Z,43.04
2023-05-07T02:33:20.711Z,42.94
2023-05-07T02:34:20.688Z,44.17
2023-05-07T02:35:20.655Z,43.76
2023-05-07T02:36:20.687Z,43.85
2023-05-07T02:37:20.630Z,44.06
2023-05-07T02:38:20.605Z,44.38
2023-05-07T02:39:19.649Z,45.41
2023-05-07T02:40:19.631Z,43.67
2023-05-07T02:41:19.625Z,43.06
2023-05-07T02:42:20.622Z,42.34
2023-05-07T02:43:20.542Z,43.06
2023-05-07T02:44:20.550Z,42.44
2023-05-07T02:45:20.556Z,41.52
2023-05-07T02:46:20.569Z,41.83
2023-05-07T02:47:20.538Z,41.93
2023-05-07T02:48:20.495Z,41.93
2023-05-07T02:49:20.510Z,42.14
2023-05-07T02:50:20.481Z,42.34
2023-05-07T02:51:20.447Z,41.73
2023-05-07T02:52:20.405Z,42.44
2023-05-07T02:53:20.415Z,43.26
2023-05-07T02:54:19.899Z,42.75
2023-05-07T02:55:19.353Z,42.55
2023-05-07T02:56:19.851Z,42.96
2023-05-07T02:57:20.373Z,43.37
2023-05-07T02:58:20.334Z,41.73
2023-05-07T02:59:20.322Z,41.01
2023-05-07T03:00:20.325Z,41.32
2023-05-07T03:01:20.345Z,41.22
2023-05-07T03:02:20.321Z,41.42
2023-05-07T03:03:20.291Z,42.44
2023-05-07T03:04:20.282Z,42.14
2023-05-07T03:05:20.252Z,42.03
2023-05-07T03:06:20.252Z,41.11
2023-05-07T03:07:20.233Z,40.60
2023-05-07T03:08:20.227Z,39.28
2023-05-07T03:09:20.218Z,39.99
2023-05-07T03:10:20.161Z,41.22
2023-05-07T03:11:20.196Z,41.73
2023-05-07T03:12:20.153Z,41.42
2023-05-07T03:13:20.253Z,41.42
2023-05-07T03:14:20.133Z,41.52
2023-05-07T03:15:20.116Z,42.14
2023-05-07T03:16:20.149Z,41.42
2023-05-07T03:17:20.082Z,40.50
2023-05-07T03:18:20.127Z,40.40
2023-05-07T03:19:20.072Z,39.28
2023-05-07T03:20:19.827Z,40.09
2023-05-07T03:21:20.074Z,41.22
2023-05-07T03:22:20.052Z,40.40
2023-05-07T03:23:20.137Z,40.40
2023-05-07T03:24:19.996Z,40.40
2023-05-07T03:25:19.973Z,40.30
2023-05-07T03:26:19.961Z,41.54
2023-05-07T03:27:19.925Z,41.44
2023-05-07T03:28:19.939Z,40.62
2023-05-07T03:29:19.950Z,40.62
2023-05-07T03:30:20.055Z,41.03
2023-05-07T03:31:19.937Z,40.31
2023-05-07T03:32:19.995Z,39.90
2023-05-07T03:33:19.861Z,40.31
2023-05-07T03:34:19.855Z,40.31
2023-05-07T03:35:19.851Z,41.03
2023-05-07T03:36:19.827Z,41.75
2023-05-07T03:37:19.830Z,41.64
2023-05-07T03:38:19.808Z,41.44
2023-05-07T03:39:19.783Z,40.83
2023-05-07T03:40:19.772Z,40.93
2023-05-07T03:41:19.738Z,42.07
2023-05-07T03:42:19.736Z,42.18
2023-05-07T03:43:19.725Z,40.13
2023-05-07T03:44:19.695Z,39.82
2023-05-07T03:45:19.701Z,40.64
2023-05-07T03:46:19.778Z,41.05
2023-05-07T03:47:19.674Z,41.66
2023-05-07T03:48:19.657Z,41.25
2023-05-07T03:49:19.673Z,40.74
2023-05-07T03:50:19.635Z,40.95
2023-05-07T03:51:19.617Z,42.38
2023-05-07T03:52:19.615Z,41.15
2023-05-07T03:53:19.587Z,40.84
2023-05-07T03:54:19.595Z,41.05
2023-05-07T03:55:19.582Z,41.05
2023-05-07T03:56:19.784Z,40.64
2023-05-07T03:57:19.552Z,41.36
2023-05-07T03:58:19.518Z,39.92
2023-05-07T03:59:19.546Z,39.11
2023-05-07T04:00:19.506Z,38.18
2023-05-07T04:01:19.479Z,39.11
2023-05-07T04:02:19.500Z,39.51
2023-05-07T04:03:19.587Z,40.23
2023-05-07T04:04:19.623Z,39.00
2023-05-07T04:05:19.454Z,38.80
2023-05-07T04:06:19.412Z,39.51
2023-05-07T04:07:17.950Z,39.51
2023-05-07T04:08:19.387Z,38.59
2023-05-07T04:09:19.391Z,39.21
2023-05-07T04:10:19.361Z,38.49
2023-05-07T04:11:19.351Z,38.90
2023-05-07T04:12:19.364Z,37.88
2023-05-07T04:13:19.432Z,38.29
2023-05-07T04:14:19.302Z,38.59
2023-05-07T04:15:19.303Z,39.00
2023-05-07T04:16:18.368Z,40.54
2023-05-07T04:17:19.283Z,39.51
2023-05-07T04:18:19.283Z,39.31
2023-05-07T04:19:19.249Z,39.00
2023-05-07T04:20:19.257Z,39.21
2023-05-07T04:21:19.230Z,39.21
2023-05-07T04:22:19.200Z,39.92
2023-05-07T04:23:18.263Z,38.90
2023-05-07T04:24:19.169Z,38.59
2023-05-07T04:25:19.165Z,38.80
2023-05-07T04:26:19.186Z,38.17
2023-05-07T04:27:19.154Z,38.98
2023-05-07T04:28:19.124Z,38.37
2023-05-07T04:29:19.101Z,38.06
2023-05-07T04:30:19.097Z,38.98
2023-05-07T04:31:19.084Z,38.17
2023-05-07T04:32:19.093Z,35.71
2023-05-07T04:33:19.046Z,36.12
2023-05-07T04:34:19.072Z,37.65
2023-05-07T04:35:19.028Z,37.63
2023-05-07T04:36:19.026Z,38.56
2023-05-07T04:37:19.005Z,39.48
2023-05-07T04:38:18.981Z,37.63
2023-05-07T04:39:18.962Z,37.43
2023-05-07T04:40:18.946Z,38.04
2023-05-07T04:41:18.950Z,38.66
2023-05-07T04:42:18.925Z,38.76
2023-05-07T04:43:18.909Z,38.35
2023-05-07T04:44:18.892Z,37.13
2023-05-07T04:45:18.869Z,37.11
2023-05-07T04:46:18.914Z,36.40
2023-05-07T04:47:18.858Z,37.21
2023-05-07T04:48:18.830Z,35.99
2023-05-07T04:49:18.827Z,37.11
2023-05-07T04:50:18.820Z,37.40
2023-05-07T04:51:18.822Z,38.11
2023-05-07T04:52:18.784Z,38.32
2023-05-07T04:53:18.806Z,39.24
2023-05-07T04:54:18.745Z,40.05
2023-05-07T04:55:18.761Z,40.56
2023-05-07T04:56:18.735Z,41.88
2023-05-07T04:57:18.715Z,42.49
2023-05-07T04:58:18.697Z,42.18
2023-05-07T04:59:18.692Z,42.69
2023-05-07T05:00:18.709Z,43.10
2023-05-07T05:01:17.778Z,44.02
2023-05-07T05:02:20.600Z,45.12
2023-05-07T05:03:17.780Z,44.92
2023-05-07T05:04:18.679Z,45.12
2023-05-07T05:05:18.627Z,45.32
2023-05-07T05:06:18.600Z,46.33
2023-05-07T05:07:18.580Z,45.81
2023-05-07T05:08:18.645Z,46.12
2023-05-07T05:09:18.554Z,44.59
2023-05-07T05:10:18.555Z,43.98
2023-05-07T05:11:18.537Z,44.06
2023-05-07T05:12:18.501Z,44.46
2023-05-07T05:13:18.619Z,45.36
2023-05-07T05:14:18.500Z,46.08
2023-05-07T05:15:18.496Z,47.28
2023-05-07T05:16:18.518Z,47.99
2023-05-07T05:17:18.437Z,48.71
2023-05-07T05:18:18.446Z,47.38
2023-05-07T05:19:17.721Z,47.77
2023-05-07T05:20:18.440Z,50.01
2023-05-07T05:21:18.412Z,51.43
2023-05-07T05:22:18.412Z,52.86
2023-05-07T05:23:17.450Z,52.53
2023-05-07T05:24:18.364Z,53.55
2023-05-07T05:25:18.356Z,53.63
2023-05-07T05:26:18.346Z,55.05
2023-05-07T05:27:18.330Z,54.74
2023-05-07T05:28:18.310Z,56.04
2023-05-07T05:29:18.276Z,57.16
2023-05-07T05:30:18.281Z,58.48
2023-05-07T05:31:18.286Z,59.80
2023-05-07T05:32:18.249Z,61.30
2023-05-07T05:33:18.251Z,60.99
2023-05-07T05:34:18.214Z,64.35
2023-05-07T05:35:18.191Z,65.54
2023-05-07T05:36:18.179Z,69.30
2023-05-07T05:37:18.194Z,68.18
2023-05-07T05:38:18.168Z,69.26
2023-05-07T05:39:18.145Z,74.75
2023-05-07T05:40:18.132Z,75.26
2023-05-07T05:41:18.120Z,75.76
2023-05-07T05:42:18.118Z,77.56
2023-05-07T05:43:18.116Z,79.79
2023-05-07T05:44:18.078Z,78.84
2023-05-07T05:45:18.074Z,79.85
2023-05-07T05:46:18.159Z,77.93
2023-05-07T05:47:18.063Z,78.94
2023-05-07T05:48:18.071Z,80.46
2023-05-07T05:49:18.036Z,81.58
2023-05-07T05:50:17.993Z,81.74
2023-05-07T05:51:17.989Z,83.37
2023-05-07T05:52:18.000Z,84.08
2023-05-07T05:53:17.968Z,82.45
2023-05-07T05:54:17.961Z,85.25
2023-05-07T05:55:17.924Z,86.27
2023-05-07T05:56:17.924Z,84.24
2023-05-07T05:57:17.897Z,83.53
2023-05-07T05:58:17.910Z,87.89
2023-05-07T05:59:17.911Z,87.18
2023-05-07T06:00:17.876Z,87.95
2023-05-07T06:01:17.861Z,90.69
2023-05-07T06:02:17.843Z,90.99
2023-05-07T06:03:17.846Z,91.50
2023-05-07T06:04:17.797Z,89.47
2023-05-07T06:05:17.871Z,89.32
2023-05-07T06:06:17.775Z,93.52
2023-05-07T06:07:17.757Z,90.84
2023-05-07T06:08:17.751Z,92.87
2023-05-07T06:09:17.759Z,92.16
2023-05-07T06:10:17.732Z,92.32
2023-05-07T06:11:17.709Z,93.54
2023-05-07T06:12:17.709Z,94.14
2023-05-07T06:13:17.731Z,94.95
2023-05-07T06:14:17.653Z,94.35
2023-05-07T06:15:17.685Z,96.42
2023-05-07T06:16:17.669Z,96.42
2023-05-07T06:17:19.494Z,95.92
2023-05-07T06:18:17.622Z,97.09
2023-05-07T06:19:17.629Z,98.71
2023-05-07T06:20:17.597Z,98.91
2023-05-07T06:21:17.593Z,98.91
2023-05-07T06:22:17.568Z,98.71
2023-05-07T06:23:18.185Z,99.99
2023-05-07T06:24:17.572Z,99.41
2023-05-07T06:25:17.526Z,99.56
2023-05-07T06:26:17.498Z,99.11
2023-05-07T06:27:17.481Z,98.91
2023-05-07T06:28:17.466Z,98.61
2023-05-07T06:29:17.467Z,99.16
2023-05-07T06:30:17.458Z,99.42
2023-05-07T06:31:17.570Z,99.99
2023-05-07T06:32:16.467Z,99.99
2023-05-07T06:33:16.481Z,99.99
2023-05-07T06:34:17.397Z,99.99
2023-05-07T06:35:16.398Z,99.99
2023-05-07T06:36:17.459Z,99.99
2023-05-07T06:37:17.347Z,99.99
2023-05-07T06:38:17.352Z,99.99
2023-05-07T06:39:17.330Z,99.99
2023-05-07T06:40:17.308Z,99.99
2023-05-07T06:41:17.493Z,99.99
2023-05-07T06:42:17.277Z,99.99
2023-05-07T06:43:17.283Z,99.99
2023-05-07T06:44:17.261Z,99.99
2023-05-07T06:45:17.234Z,99.99
2023-05-07T06:46:17.280Z,99.99
2023-05-07T06:47:17.237Z,99.99
2023-05-07T06:48:17.202Z,99.99
2023-05-07T06:49:17.222Z,99.70
2023-05-07T06:50:17.176Z,97.69
2023-05-07T06:51:17.162Z,97.64
2023-05-07T06:52:17.176Z,96.14
2023-05-07T06:53:17.129Z,94.37
2023-05-07T06:54:17.116Z,94.21
2023-05-07T06:55:17.103Z,96.63
2023-05-07T06:56:17.090Z,99.15
2023-05-07T06:57:17.095Z,99.99
2023-05-07T06:58:17.073Z,99.80
2023-05-07T06:59:17.044Z,99.60
2023-05-07T07:00:17.033Z,99.90
2023-05-07T07:01:17.042Z,99.99
2023-05-07T07:02:18.319Z,99.99
2023-05-07T07:03:16.993Z,99.99
2023-05-07T07:04:17.102Z,99.60
2023-05-07T07:05:16.957Z,98.49
2023-05-07T07:06:16.981Z,99.99
2023-05-07T07:07:16.927Z,99.99
2023-05-07T07:08:16.921Z,98.99
2023-05-07T07:09:16.889Z,99.15
2023-05-07T07:10:16.243Z,97.94
2023-05-07T07:11:16.889Z,96.33
2023-05-07T07:12:16.866Z,97.69
2023-05-07T07:13:16.920Z,95.58
2023-05-07T07:14:16.818Z,94.27
2023-05-07T07:15:16.839Z,93.37
2023-05-07T07:16:17.017Z,94.57
2023-05-07T07:17:16.783Z,94.27
2023-05-07T07:18:16.768Z,94.47
2023-05-07T07:19:16.764Z,97.13
2023-05-07T07:20:16.981Z,97.33
2023-05-07T07:21:16.761Z,97.69
2023-05-07T07:22:16.870Z,96.98
2023-05-07T07:23:16.714Z,96.43
2023-05-07T07:24:16.701Z,98.54
2023-05-07T07:25:16.831Z,96.83
2023-05-07T07:26:16.682Z,96.53
2023-05-07T07:27:16.649Z,97.24
2023-05-07T07:28:16.676Z,97.24
2023-05-07T07:29:16.630Z,97.99
2023-05-07T07:30:16.611Z,96.48
2023-05-07T07:31:16.646Z,98.50
2023-05-07T07:32:16.580Z,96.19
2023-05-07T07:33:16.559Z,99.30
2023-05-07T07:34:16.555Z,97.39
2023-05-07T07:35:16.534Z,96.78
2023-05-07T07:36:16.534Z,95.38
2023-05-07T07:37:16.534Z,96.08
2023-05-07T07:38:16.501Z,95.13
2023-05-07T07:39:16.519Z,94.33
2023-05-07T07:40:16.472Z,92.97
2023-05-07T07:41:16.448Z,92.92
2023-05-07T07:42:16.435Z,94.23
2023-05-07T07:43:16.426Z,93.22
2023-05-07T07:44:16.804Z,93.48
2023-05-07T07:45:16.412Z,92.57
2023-05-07T07:46:16.429Z,90.61
2023-05-07T07:47:16.426Z,94.38
2023-05-07T07:48:16.381Z,92.17
2023-05-07T07:49:16.367Z,89.82
2023-05-07T07:50:24.361Z,88.61
2023-05-07T07:51:17.326Z,85.70
2023-05-07T07:52:16.309Z,83.55
2023-05-07T07:53:18.966Z,80.40
2023-05-07T07:54:15.910Z,82.70
2023-05-07T07:55:16.273Z,82.40
2023-05-07T07:56:16.285Z,80.19
2023-05-07T07:57:16.279Z,80.36
2023-05-07T07:58:16.265Z,81.52
2023-05-07T07:59:16.277Z,82.09
2023-05-07T08:00:16.214Z,76.21
2023-05-07T08:01:16.177Z,77.01
2023-05-07T08:02:16.175Z,77.21
2023-05-07T08:03:16.222Z,79.28
2023-05-07T08:04:16.226Z,74.97
2023-05-07T08:05:16.123Z,73.67
2023-05-07T08:06:16.126Z,73.27
2023-05-07T08:07:16.112Z,73.07
2023-05-07T08:08:16.120Z,74.27
2023-05-07T08:09:16.062Z,72.39
2023-05-07T08:10:16.072Z,71.39
2023-05-07T08:11:16.046Z,70.19
2023-05-07T08:12:16.038Z,70.50
2023-05-07T08:13:16.106Z,68.66
2023-05-07T08:14:15.999Z,69.96
2023-05-07T08:15:15.987Z,66.82
2023-05-07T08:16:15.999Z,67.13
2023-05-07T08:17:16.016Z,65.79
2023-05-07T08:18:15.969Z,64.56
2023-05-07T08:19:15.958Z,64.93
2023-05-07T08:20:15.941Z,63.77
2023-05-07T08:21:15.900Z,62.04
2023-05-07T08:22:15.915Z,60.92
2023-05-07T08:23:15.986Z,61.11
2023-05-07T08:24:15.875Z,61.55
2023-05-07T08:25:15.858Z,62.60
2023-05-07T08:26:15.848Z,63.30
2023-05-07T08:27:15.833Z,63.33
2023-05-07T08:28:15.831Z,64.56
2023-05-07T08:29:15.793Z,66.69
2023-05-07T08:30:15.785Z,65.66
2023-05-07T08:31:15.830Z,65.26
2023-05-07T08:32:15.781Z,64.26
2023-05-07T08:33:14.411Z,66.46
2023-05-07T08:34:15.737Z,65.83
2023-05-07T08:35:15.713Z,68.79
2023-05-07T08:36:15.722Z,66.76
2023-05-07T08:37:15.693Z,64.66
2023-05-07T08:38:15.710Z,65.46
2023-05-07T08:39:15.675Z,66.06
2023-05-07T08:40:16.053Z,65.13
2023-05-07T08:41:15.658Z,64.60
2023-05-07T08:42:15.670Z,62.87
2023-05-07T08:43:15.634Z,63.47
2023-05-07T08:44:14.483Z,62.67
2023-05-07T08:45:15.684Z,62.97
2023-05-07T08:46:15.656Z,63.87
2023-05-07T08:47:15.570Z,63.04
2023-05-07T08:48:15.568Z,63.04
2023-05-07T08:49:15.655Z,62.84
2023-05-07T08:50:15.539Z,63.54
2023-05-07T08:51:15.520Z,62.87
2023-05-07T08:52:14.544Z,64.30
2023-05-07T08:53:14.556Z,66.86
2023-05-07T08:54:15.469Z,66.56
2023-05-07T08:55:15.483Z,66.96
2023-05-07T08:56:15.446Z,66.13
2023-05-07T08:57:15.436Z,66.23
2023-05-07T08:58:15.419Z,64.43
2023-05-07T08:59:15.408Z,65.37
2023-05-07T09:00:15.402Z,63.17
2023-05-07T09:01:15.401Z,63.14
2023-05-07T09:02:15.447Z,62.45
2023-05-07T09:03:15.497Z,62.84
2023-05-07T09:04:15.412Z,62.81
2023-05-07T09:05:15.338Z,63.54
2023-05-07T09:06:15.327Z,61.61
2023-05-07T09:07:15.288Z,60.66
2023-05-07T09:08:15.277Z,60.26
2023-05-07T09:09:15.282Z,59.77
2023-05-07T09:10:15.256Z,60.46
2023-05-07T09:11:15.237Z,59.74
2023-05-07T09:12:15.219Z,58.74
2023-05-07T09:13:15.262Z,59.14
2023-05-07T09:14:15.230Z,60.46
2023-05-07T09:15:15.184Z,59.41
2023-05-07T09:16:15.232Z,58.69
2023-05-07T09:17:15.156Z,57.06
2023-05-07T09:19:15.149Z,56.09
2023-05-07T09:20:15.128Z,55.11
2023-05-07T09:21:15.114Z,52.78
2023-05-07T09:22:15.102Z,51.67
2023-05-07T09:23:15.113Z,52.44
2023-05-07T09:24:15.067Z,51.00
2023-05-07T09:25:15.094Z,51.42
2023-05-07T09:26:15.025Z,49.99
2023-05-07T09:27:15.024Z,49.67
2023-05-07T09:28:15.023Z,49.77
2023-05-07T09:29:15.000Z,49.74
2023-05-07T09:30:15.071Z,49.18
2023-05-07T09:31:15.003Z,48.27
2023-05-07T09:32:14.982Z,49.35
2023-05-07T09:33:14.971Z,49.18
2023-05-07T09:34:14.934Z,49.72
2023-05-07T09:35:14.911Z,50.16
2023-05-07T09:36:14.934Z,51.37
2023-05-07T09:37:14.908Z,52.07
2023-05-07T09:38:14.384Z,51.97
2023-05-07T09:39:14.938Z,51.65
2023-05-07T09:40:14.884Z,50.73
2023-05-07T09:41:14.841Z,50.36
2023-05-07T09:42:14.874Z,48.71
2023-05-07T09:43:13.912Z,47.35
2023-05-07T09:44:13.586Z,48.96
2023-05-07T09:45:13.517Z,48.02
2023-05-07T09:46:14.943Z,48.02
2023-05-07T09:47:14.793Z,48.34
2023-05-07T09:48:14.763Z,47.82
2023-05-07T09:49:14.748Z,47.03
2023-05-07T09:50:14.781Z,48.10
2023-05-07T09:51:14.746Z,47.01
2023-05-07T09:52:14.740Z,46.72
2023-05-07T09:53:14.686Z,47.60
2023-05-07T09:54:14.663Z,46.08
2023-05-07T09:55:14.669Z,44.48
2023-05-07T09:56:14.657Z,45.24
2023-05-07T09:57:14.922Z,47.03
2023-05-07T09:58:14.633Z,45.53
2023-05-07T09:59:14.621Z,44.78
2023-05-07T10:00:14.629Z,44.64
2023-05-07T10:01:14.627Z,44.80
2023-05-07T10:02:14.605Z,46.28
2023-05-07T10:03:14.640Z,46.47
2023-05-07T10:04:14.560Z,45.56
2023-05-07T10:05:14.544Z,45.96
2023-05-07T10:06:14.548Z,46.37
2023-05-07T10:07:14.511Z,46.20
2023-05-07T10:08:13.207Z,46.62
2023-05-07T10:09:14.505Z,45.90
2023-05-07T10:10:14.542Z,44.80
2023-05-07T10:11:14.490Z,45.02
2023-05-07T10:12:14.452Z,44.48
2023-05-07T10:13:14.777Z,43.89
2023-05-07T10:14:14.604Z,43.99
2023-05-07T10:15:14.539Z,43.46
2023-05-07T10:16:14.435Z,43.33
2023-05-07T10:17:14.454Z,43.10
2023-05-07T10:18:14.558Z,41.58
2023-05-07T10:19:15.341Z,41.00
2023-05-07T10:20:14.671Z,40.33
2023-05-07T10:21:13.275Z,43.01
2023-05-07T10:22:14.635Z,43.68
2023-05-07T10:23:13.029Z,42.51
2023-05-07T10:24:14.533Z,41.24
2023-05-07T10:25:14.679Z,43.98
2023-05-07T10:26:14.583Z,41.90
2023-05-07T10:27:14.458Z,41.71
2023-05-07T10:28:14.530Z,43.19
2023-05-07T10:29:14.569Z,41.71
2023-05-07T10:30:14.616Z,41.31
2023-05-07T10:31:14.639Z,40.03
2023-05-07T10:32:13.043Z,40.92
2023-05-07T10:33:14.418Z,41.31
2023-05-07T10:34:13.066Z,40.61
2023-05-07T10:35:13.109Z,40.45
2023-05-07T10:36:14.351Z,39.96
2023-05-07T10:37:13.025Z,38.60
2023-05-07T10:38:14.390Z,40.58
2023-05-07T10:39:13.092Z,41.27
2023-05-07T10:40:14.307Z,40.58
2023-05-07T10:41:14.308Z,40.41
2023-05-07T10:42:13.221Z,42.82
2023-05-07T10:43:14.350Z,43.79
2023-05-07T10:44:13.335Z,45.31
2023-05-07T10:45:14.602Z,47.35
2023-05-07T10:46:14.108Z,46.22
2023-05-07T10:47:14.115Z,45.39
2023-05-07T10:49:14.116Z,43.14
2023-05-07T10:50:14.038Z,43.33
2023-05-07T10:51:21.172Z,44.68
2023-05-07T10:52:13.965Z,43.99
2023-05-07T10:53:13.965Z,43.23
2023-05-07T10:54:13.946Z,45.74
2023-05-07T10:55:13.912Z,46.37
2023-05-07T10:56:13.922Z,43.10
2023-05-07T10:57:13.932Z,44.09
2023-05-07T10:58:23.517Z,46.42
2023-05-07T10:59:13.965Z,47.43
2023-05-07T11:00:14.149Z,46.52
2023-05-07T11:01:13.879Z,46.40
2023-05-07T11:02:13.916Z,42.76
2023-05-07T11:03:13.940Z,41.83
2023-05-07T11:04:13.811Z,43.88
2023-05-07T11:05:14.283Z,43.24
2023-05-07T11:06:12.595Z,46.28
2023-05-07T11:07:13.936Z,44.40
2023-05-07T11:08:13.761Z,44.40
2023-05-07T11:09:13.854Z,43.95
2023-05-07T11:10:13.357Z,44.78
2023-05-07T11:11:13.765Z,46.67
2023-05-07T11:12:13.764Z,46.17
2023-05-07T11:13:13.747Z,46.07
2023-05-07T11:14:13.690Z,48.10
2023-05-07T11:15:13.820Z,48.80
2023-05-07T11:16:13.752Z,48.94
2023-05-07T11:17:13.638Z,49.63
2023-05-07T11:18:12.709Z,50.45
2023-05-07T11:19:12.673Z,51.45
2023-05-07T11:20:12.707Z,52.07
2023-05-07T11:21:13.767Z,52.67
2023-05-07T11:22:12.681Z,52.89
2023-05-07T11:23:13.555Z,53.88
2023-05-07T11:24:13.551Z,53.69
2023-05-07T11:25:13.771Z,52.09
2023-05-07T11:26:12.624Z,51.79
2023-05-07T11:27:13.057Z,51.82
2023-05-07T11:28:14.031Z,52.26
2023-05-07T11:29:13.693Z,52.17
2023-05-07T11:30:13.510Z,51.52
2023-05-07T11:31:13.600Z,50.21
2023-05-07T11:32:13.653Z,49.91
2023-05-07T11:33:13.444Z,49.54
2023-05-07T11:34:13.414Z,51.37
2023-05-07T11:35:13.654Z,50.16
2023-05-07T11:36:13.389Z,49.86
2023-05-07T11:37:13.367Z,48.72
2023-05-07T11:38:13.347Z,47.24
2023-05-07T11:39:13.338Z,47.41
2023-05-07T11:40:13.338Z,48.60
2023-05-07T11:41:13.323Z,48.21
2023-05-07T11:42:13.305Z,47.22
2023-05-07T11:43:13.284Z,48.38
2023-05-07T11:44:13.276Z,47.78
2023-05-07T11:45:13.523Z,46.30
2023-05-07T11:46:13.340Z,46.97
2023-05-07T11:47:13.236Z,46.06
2023-05-07T11:48:13.211Z,47.32
2023-05-07T11:49:13.218Z,46.75
2023-05-07T11:50:13.205Z,47.00
2023-05-07T11:51:13.243Z,46.92
2023-05-07T11:52:12.044Z,46.45
2023-05-07T11:53:14.206Z,46.97
2023-05-07T11:54:13.155Z,47.53
2023-05-07T11:55:13.286Z,46.84
2023-05-07T11:56:13.117Z,48.35
2023-05-07T11:57:13.106Z,46.05
2023-05-07T11:58:13.107Z,47.44
2023-05-07T11:59:13.098Z,48.15
2023-05-07T12:00:13.061Z,48.23
2023-05-07T12:01:13.046Z,47.83
2023-05-07T12:02:13.062Z,49.24
2023-05-07T12:03:13.088Z,50.93
2023-05-07T12:04:13.111Z,49.54
2023-05-07T12:05:13.253Z,49.27
2023-05-07T12:06:12.808Z,49.54
2023-05-07T12:07:13.009Z,49.46
2023-05-07T12:08:11.991Z,48.87
2023-05-07T12:09:12.457Z,50.65
2023-05-07T12:10:12.015Z,51.77
2023-05-07T12:11:12.028Z,53.23
2023-05-07T12:12:12.924Z,54.10
2023-05-07T12:13:12.952Z,52.54
2023-05-07T12:14:12.891Z,53.14
2023-05-07T12:15:13.216Z,53.14
2023-05-07T12:16:12.912Z,51.45
2023-05-07T12:17:12.347Z,51.45
2023-05-07T12:18:12.978Z,52.12
2023-05-07T12:19:15.148Z,52.44
2023-05-07T12:20:11.849Z,53.80
2023-05-07T12:21:12.788Z,51.67
2023-05-07T12:22:14.089Z,52.76
2023-05-07T12:23:12.775Z,53.26
2023-05-07T12:24:12.743Z,54.28
2023-05-07T12:25:12.888Z,55.36
2023-05-07T12:26:12.710Z,56.09
2023-05-07T12:27:12.726Z,55.49
2023-05-07T12:28:12.704Z,54.90
2023-05-07T12:29:12.687Z,55.72
2023-05-07T12:30:12.737Z,55.91
2023-05-07T12:31:12.706Z,55.12
2023-05-07T12:32:12.669Z,56.54
2023-05-07T12:33:12.641Z,57.39
2023-05-07T12:34:11.687Z,58.51
2023-05-07T12:35:12.791Z,59.01
2023-05-07T12:36:12.602Z,59.01
2023-05-07T12:37:12.594Z,59.11
2023-05-07T12:38:12.584Z,58.91
2023-05-07T12:39:12.741Z,59.61
2023-05-07T12:40:12.747Z,59.38
2023-05-07T12:41:12.534Z,59.81
2023-05-07T12:42:12.540Z,60.33
2023-05-07T12:43:12.495Z,60.43
2023-05-07T12:44:12.487Z,61.03
2023-05-07T12:45:12.721Z,60.53
2023-05-07T12:46:11.114Z,60.43
2023-05-07T12:47:12.529Z,60.89
2023-05-07T12:48:12.437Z,62.45
2023-05-07T12:49:12.433Z,62.65
2023-05-07T12:50:12.560Z,61.46
2023-05-07T12:51:12.404Z,61.55
2023-05-07T12:52:12.372Z,61.25
2023-05-07T12:53:12.373Z,62.48
2023-05-07T12:54:12.369Z,62.38